sensor_id;sensor_type;location;lat;lon;timestamp;temperature;humidity
41668;DHT22;27356;50.920;5.350;2024-02-16T00:00:17;14.00;99.90
41668;DHT22;27356;50.920;5.350;2024-02-16T00:02:43;14.00;99.90
41668;DHT22;27356;50.920;5.350;2024-02-16T00:05:10;14.10;99.90
41668;DHT22;27356;50.920;5.350;2024-02-16T00:07:39;14.00;99.90
41668;DHT22;27356;50.920;5.350;2024-02-16T00:10:06;14.10;99.90
41668;DHT22;27356;50.920;5.350;2024-02-16T00:12:33;14.00;99.90
41668;DHT22;27356;50.920;5.350;2024-02-16T00:15:00;13.90;99.90
41668;DHT22;27356;50.920;5.350;2024-02-16T00:17:26;14.00;99.90
41668;DHT22;27356;50.920;5.350;2024-02-16T00:19:55;14.10;99.90
41668;DHT22;27356;50.920;5.350;2024-02-16T00:22:22;14.10;99.90
41668;DHT22;27356;50.920;5.350;2024-02-16T00:24:48;14.00;99.90
41668;DHT22;27356;50.920;5.350;2024-02-16T00:27:14;14.00;99.90
41668;DHT22;27356;50.920;5.350;2024-02-16T00:29:41;14.00;99.90
41668;DHT22;27356;50.920;5.350;2024-02-16T00:32:07;14.00;99.90
41668;DHT22;27356;50.920;5.350;2024-02-16T00:34:35;14.10;99.90
41668;DHT22;27356;50.920;5.350;2024-02-16T00:37:01;14.10;99.90
41668;DHT22;27356;50.920;5.350;2024-02-16T00:39:26;14.10;99.90
41668;DHT22;27356;50.920;5.350;2024-02-16T00:41:53;14.00;99.90
41668;DHT22;27356;50.920;5.350;2024-02-16T00:44:19;14.00;99.90
41668;DHT22;27356;50.920;5.350;2024-02-16T00:46:45;14.20;99.90
41668;DHT22;27356;50.920;5.350;2024-02-16T00:49:11;14.20;99.90
41668;DHT22;27356;50.920;5.350;2024-02-16T00:51:40;14.30;99.90
41668;DHT22;27356;50.920;5.350;2024-02-16T00:54:06;14.20;99.90
41668;DHT22;27356;50.920;5.350;2024-02-16T00:56:32;14.20;99.90
41668;DHT22;27356;50.920;5.350;2024-02-16T00:58:58;14.10;99.90
41668;DHT22;27356;50.920;5.350;2024-02-16T01:01:24;14.10;99.90
41668;DHT22;27356;50.920;5.350;2024-02-16T01:03:52;14.00;99.90
41668;DHT22;27356;50.920;5.350;2024-02-16T01:06:18;14.00;99.90
41668;DHT22;27356;50.920;5.350;2024-02-16T01:08:44;14.00;99.90
41668;DHT22;27356;50.920;5.350;2024-02-16T01:11:10;13.90;99.90
41668;DHT22;27356;50.920;5.350;2024-02-16T01:13:36;13.80;99.90
41668;DHT22;27356;50.920;5.350;2024-02-16T01:16:05;13.70;99.90
41668;DHT22;27356;50.920;5.350;2024-02-16T01:18:31;13.80;99.90
41668;DHT22;27356;50.920;5.350;2024-02-16T01:20:58;13.70;99.90
41668;DHT22;27356;50.920;5.350;2024-02-16T01:23:24;13.60;99.90
41668;DHT22;27356;50.920;5.350;2024-02-16T01:25:50;13.60;99.90
41668;DHT22;27356;50.920;5.350;2024-02-16T01:28:16;13.50;99.90
41668;DHT22;27356;50.920;5.350;2024-02-16T01:30:42;13.50;99.90
41668;DHT22;27356;50.920;5.350;2024-02-16T01:33:08;13.60;99.90
41668;DHT22;27356;50.920;5.350;2024-02-16T01:35:34;13.70;99.90
41668;DHT22;27356;50.920;5.350;2024-02-16T01:38:00;13.50;99.90
41668;DHT22;27356;50.920;5.350;2024-02-16T01:40:27;13.50;99.90
41668;DHT22;27356;50.920;5.350;2024-02-16T01:42:53;13.60;99.90
41668;DHT22;27356;50.920;5.350;2024-02-16T01:45:19;13.50;99.90
41668;DHT22;27356;50.920;5.350;2024-02-16T01:47:48;13.50;99.90
41668;DHT22;27356;50.920;5.350;2024-02-16T01:50:16;13.50;99.90
41668;DHT22;27356;50.920;5.350;2024-02-16T01:52:44;13.60;99.90
41668;DHT22;27356;50.920;5.350;2024-02-16T01:55:10;13.60;99.90
41668;DHT22;27356;50.920;5.350;2024-02-16T01:57:44;13.60;99.90
41668;DHT22;27356;50.920;5.350;2024-02-16T02:00:10;13.60;99.90
41668;DHT22;27356;50.920;5.350;2024-02-16T02:02:37;13.70;99.90
41668;DHT22;27356;50.920;5.350;2024-02-16T02:05:03;13.60;99.90
41668;DHT22;27356;50.920;5.350;2024-02-16T02:07:29;13.60;99.90
41668;DHT22;27356;50.920;5.350;2024-02-16T02:09:56;13.70;99.90
41668;DHT22;27356;50.920;5.350;2024-02-16T02:12:22;13.80;99.90
41668;DHT22;27356;50.920;5.350;2024-02-16T02:14:49;13.80;99.90
41668;DHT22;27356;50.920;5.350;2024-02-16T02:17:15;13.80;99.90
41668;DHT22;27356;50.920;5.350;2024-02-16T02:19:41;13.80;99.90
41668;DHT22;27356;50.920;5.350;2024-02-16T02:22:17;13.80;99.90
41668;DHT22;27356;50.920;5.350;2024-02-16T02:24:44;13.90;99.90
41668;DHT22;27356;50.920;5.350;2024-02-16T02:27:11;13.90;99.90
41668;DHT22;27356;50.920;5.350;2024-02-16T02:29:39;13.90;99.90
41668;DHT22;27356;50.920;5.350;2024-02-16T02:32:05;13.90;99.90
41668;DHT22;27356;50.920;5.350;2024-02-16T02:34:31;13.90;99.90
41668;DHT22;27356;50.920;5.350;2024-02-16T02:36:57;13.90;99.90
41668;DHT22;27356;50.920;5.350;2024-02-16T02:39:23;14.00;99.90
41668;DHT22;27356;50.920;5.350;2024-02-16T02:41:49;13.90;99.90
41668;DHT22;27356;50.920;5.350;2024-02-16T02:44:14;13.90;99.90
41668;DHT22;27356;50.920;5.350;2024-02-16T02:46:40;13.80;99.90
41668;DHT22;27356;50.920;5.350;2024-02-16T02:49:06;13.80;99.90
41668;DHT22;27356;50.920;5.350;2024-02-16T02:51:32;13.90;99.90
41668;DHT22;27356;50.920;5.350;2024-02-16T02:53:58;14.00;99.90
41668;DHT22;27356;50.920;5.350;2024-02-16T02:56:24;14.00;99.90
41668;DHT22;27356;50.920;5.350;2024-02-16T02:58:50;13.90;99.90
41668;DHT22;27356;50.920;5.350;2024-02-16T03:01:15;13.90;99.90
41668;DHT22;27356;50.920;5.350;2024-02-16T03:03:41;13.80;99.90
41668;DHT22;27356;50.920;5.350;2024-02-16T03:06:08;13.80;99.90
41668;DHT22;27356;50.920;5.350;2024-02-16T03:08:35;13.90;99.90
41668;DHT22;27356;50.920;5.350;2024-02-16T03:11:01;13.80;99.90
41668;DHT22;27356;50.920;5.350;2024-02-16T03:13:27;13.80;99.90
41668;DHT22;27356;50.920;5.350;2024-02-16T03:15:53;13.90;99.90
41668;DHT22;27356;50.920;5.350;2024-02-16T03:18:19;13.90;99.90
41668;DHT22;27356;50.920;5.350;2024-02-16T03:20:45;13.90;99.90
41668;DHT22;27356;50.920;5.350;2024-02-16T03:23:14;14.00;99.90
41668;DHT22;27356;50.920;5.350;2024-02-16T03:25:40;14.10;99.90
41668;DHT22;27356;50.920;5.350;2024-02-16T03:28:09;14.00;99.90
41668;DHT22;27356;50.920;5.350;2024-02-16T03:30:35;14.10;99.90
41668;DHT22;27356;50.920;5.350;2024-02-16T03:33:01;14.00;99.90
41668;DHT22;27356;50.920;5.350;2024-02-16T03:35:27;14.10;99.90
41668;DHT22;27356;50.920;5.350;2024-02-16T03:37:53;14.00;99.90
41668;DHT22;27356;50.920;5.350;2024-02-16T03:40:18;14.10;99.90
41668;DHT22;27356;50.920;5.350;2024-02-16T03:42:44;14.10;99.90
41668;DHT22;27356;50.920;5.350;2024-02-16T03:45:10;14.10;99.90
41668;DHT22;27356;50.920;5.350;2024-02-16T03:47:36;14.10;99.90
41668;DHT22;27356;50.920;5.350;2024-02-16T03:50:06;14.10;99.90
41668;DHT22;27356;50.920;5.350;2024-02-16T03:52:32;14.10;99.90
41668;DHT22;27356;50.920;5.350;2024-02-16T03:54:58;14.30;99.90
41668;DHT22;27356;50.920;5.350;2024-02-16T03:57:24;14.20;99.90
41668;DHT22;27356;50.920;5.350;2024-02-16T03:59:50;14.20;99.90
41668;DHT22;27356;50.920;5.350;2024-02-16T04:02:15;14.20;99.90
41668;DHT22;27356;50.920;5.350;2024-02-16T04:04:42;14.20;99.90
41668;DHT22;27356;50.920;5.350;2024-02-16T04:07:08;14.30;99.90
41668;DHT22;27356;50.920;5.350;2024-02-16T04:09:34;14.30;99.90
41668;DHT22;27356;50.920;5.350;2024-02-16T04:12:03;14.20;99.90
41668;DHT22;27356;50.920;5.350;2024-02-16T04:14:30;14.20;99.90
41668;DHT22;27356;50.920;5.350;2024-02-16T04:16:56;14.30;99.90
41668;DHT22;27356;50.920;5.350;2024-02-16T04:19:28;14.20;99.90
41668;DHT22;27356;50.920;5.350;2024-02-16T04:21:55;14.10;99.90
41668;DHT22;27356;50.920;5.350;2024-02-16T04:24:21;14.00;99.90
41668;DHT22;27356;50.920;5.350;2024-02-16T04:26:46;14.00;99.90
41668;DHT22;27356;50.920;5.350;2024-02-16T04:29:12;14.00;99.90
41668;DHT22;27356;50.920;5.350;2024-02-16T04:31:42;14.10;99.90
41668;DHT22;27356;50.920;5.350;2024-02-16T04:34:11;14.20;99.90
41668;DHT22;27356;50.920;5.350;2024-02-16T04:36:37;14.20;99.90
41668;DHT22;27356;50.920;5.350;2024-02-16T04:39:03;14.10;99.90
41668;DHT22;27356;50.920;5.350;2024-02-16T04:41:28;14.20;99.90
41668;DHT22;27356;50.920;5.350;2024-02-16T04:43:54;14.20;99.90
41668;DHT22;27356;50.920;5.350;2024-02-16T04:46:20;14.20;99.90
41668;DHT22;27356;50.920;5.350;2024-02-16T04:48:47;14.20;99.90
41668;DHT22;27356;50.920;5.350;2024-02-16T04:51:13;14.10;99.90
41668;DHT22;27356;50.920;5.350;2024-02-16T04:53:38;14.20;99.90
41668;DHT22;27356;50.920;5.350;2024-02-16T04:56:05;14.10;99.90
41668;DHT22;27356;50.920;5.350;2024-02-16T04:58:31;14.20;99.90
41668;DHT22;27356;50.920;5.350;2024-02-16T05:00:57;14.20;99.90
41668;DHT22;27356;50.920;5.350;2024-02-16T05:03:23;14.30;99.90
41668;DHT22;27356;50.920;5.350;2024-02-16T05:05:49;14.20;99.90
41668;DHT22;27356;50.920;5.350;2024-02-16T05:08:15;14.20;99.90
41668;DHT22;27356;50.920;5.350;2024-02-16T05:10:41;14.30;99.90
41668;DHT22;27356;50.920;5.350;2024-02-16T05:13:07;14.20;99.90
41668;DHT22;27356;50.920;5.350;2024-02-16T05:15:33;14.30;99.90
41668;DHT22;27356;50.920;5.350;2024-02-16T05:17:59;14.20;99.90
41668;DHT22;27356;50.920;5.350;2024-02-16T05:20:24;14.20;99.90
41668;DHT22;27356;50.920;5.350;2024-02-16T05:22:50;14.20;99.90
41668;DHT22;27356;50.920;5.350;2024-02-16T05:25:17;14.30;99.90
41668;DHT22;27356;50.920;5.350;2024-02-16T05:27:44;14.30;99.90
41668;DHT22;27356;50.920;5.350;2024-02-16T05:30:11;14.40;99.90
41668;DHT22;27356;50.920;5.350;2024-02-16T05:32:39;14.40;99.90
41668;DHT22;27356;50.920;5.350;2024-02-16T05:35:06;14.30;99.90
41668;DHT22;27356;50.920;5.350;2024-02-16T05:37:49;14.30;99.90
41668;DHT22;27356;50.920;5.350;2024-02-16T05:40:20;14.30;99.90
41668;DHT22;27356;50.920;5.350;2024-02-16T05:42:58;14.20;99.90
41668;DHT22;27356;50.920;5.350;2024-02-16T05:45:24;14.20;99.90
41668;DHT22;27356;50.920;5.350;2024-02-16T05:47:51;14.20;99.90
41668;DHT22;27356;50.920;5.350;2024-02-16T05:50:17;14.20;99.90
41668;DHT22;27356;50.920;5.350;2024-02-16T05:52:43;14.10;99.90
41668;DHT22;27356;50.920;5.350;2024-02-16T05:55:10;14.20;99.90
41668;DHT22;27356;50.920;5.350;2024-02-16T05:57:37;14.20;99.90
41668;DHT22;27356;50.920;5.350;2024-02-16T06:00:07;14.10;99.90
41668;DHT22;27356;50.920;5.350;2024-02-16T06:02:34;14.00;99.90
41668;DHT22;27356;50.920;5.350;2024-02-16T06:05:03;14.10;99.90
41668;DHT22;27356;50.920;5.350;2024-02-16T06:07:30;14.10;99.90
41668;DHT22;27356;50.920;5.350;2024-02-16T06:09:56;14.00;99.90
41668;DHT22;27356;50.920;5.350;2024-02-16T06:12:23;14.00;99.90
41668;DHT22;27356;50.920;5.350;2024-02-16T06:14:49;14.00;99.90
41668;DHT22;27356;50.920;5.350;2024-02-16T06:17:16;14.00;99.90
41668;DHT22;27356;50.920;5.350;2024-02-16T06:19:42;13.90;99.90
41668;DHT22;27356;50.920;5.350;2024-02-16T06:22:08;13.90;99.90
41668;DHT22;27356;50.920;5.350;2024-02-16T06:24:34;14.00;99.90
41668;DHT22;27356;50.920;5.350;2024-02-16T06:27:00;14.00;99.90
41668;DHT22;27356;50.920;5.350;2024-02-16T06:29:26;14.00;99.90
41668;DHT22;27356;50.920;5.350;2024-02-16T06:31:52;14.00;99.90
41668;DHT22;27356;50.920;5.350;2024-02-16T06:34:19;14.00;99.90
41668;DHT22;27356;50.920;5.350;2024-02-16T06:36:45;14.00;99.90
41668;DHT22;27356;50.920;5.350;2024-02-16T06:39:11;14.00;99.90
41668;DHT22;27356;50.920;5.350;2024-02-16T06:41:37;14.00;99.90
41668;DHT22;27356;50.920;5.350;2024-02-16T06:44:04;14.00;99.90
41668;DHT22;27356;50.920;5.350;2024-02-16T06:46:30;14.00;99.90
41668;DHT22;27356;50.920;5.350;2024-02-16T06:48:56;14.10;99.90
41668;DHT22;27356;50.920;5.350;2024-02-16T06:51:25;14.10;99.90
41668;DHT22;27356;50.920;5.350;2024-02-16T06:53:52;14.20;99.90
41668;DHT22;27356;50.920;5.350;2024-02-16T06:56:18;14.10;99.90
41668;DHT22;27356;50.920;5.350;2024-02-16T06:58:45;14.10;99.90
41668;DHT22;27356;50.920;5.350;2024-02-16T07:01:15;14.00;99.90
41668;DHT22;27356;50.920;5.350;2024-02-16T07:03:41;13.90;99.90
41668;DHT22;27356;50.920;5.350;2024-02-16T07:06:07;14.00;99.90
41668;DHT22;27356;50.920;5.350;2024-02-16T07:08:36;14.20;99.90
41668;DHT22;27356;50.920;5.350;2024-02-16T07:11:02;14.20;99.90
41668;DHT22;27356;50.920;5.350;2024-02-16T07:13:29;14.10;99.90
41668;DHT22;27356;50.920;5.350;2024-02-16T07:15:54;14.10;99.90
41668;DHT22;27356;50.920;5.350;2024-02-16T07:18:20;14.10;99.90
41668;DHT22;27356;50.920;5.350;2024-02-16T07:20:47;14.20;99.90
41668;DHT22;27356;50.920;5.350;2024-02-16T07:23:13;14.30;99.90
41668;DHT22;27356;50.920;5.350;2024-02-16T07:25:41;14.30;99.90
41668;DHT22;27356;50.920;5.350;2024-02-16T07:28:08;14.30;99.90
41668;DHT22;27356;50.920;5.350;2024-02-16T07:30:35;14.30;99.90
41668;DHT22;27356;50.920;5.350;2024-02-16T07:33:05;14.30;99.90
41668;DHT22;27356;50.920;5.350;2024-02-16T07:35:30;14.30;99.90
41668;DHT22;27356;50.920;5.350;2024-02-16T07:37:56;14.30;99.90
41668;DHT22;27356;50.920;5.350;2024-02-16T07:40:22;14.20;99.90
41668;DHT22;27356;50.920;5.350;2024-02-16T07:42:48;14.30;99.90
41668;DHT22;27356;50.920;5.350;2024-02-16T07:45:14;14.30;99.90
41668;DHT22;27356;50.920;5.350;2024-02-16T07:47:43;14.50;99.90
41668;DHT22;27356;50.920;5.350;2024-02-16T07:50:09;14.50;99.90
41668;DHT22;27356;50.920;5.350;2024-02-16T07:52:36;14.50;99.90
41668;DHT22;27356;50.920;5.350;2024-02-16T07:55:02;14.60;99.90
41668;DHT22;27356;50.920;5.350;2024-02-16T07:57:28;14.60;99.90
41668;DHT22;27356;50.920;5.350;2024-02-16T07:59:54;14.60;99.90
41668;DHT22;27356;50.920;5.350;2024-02-16T08:02:19;14.50;99.90
41668;DHT22;27356;50.920;5.350;2024-02-16T08:04:49;14.50;99.90
41668;DHT22;27356;50.920;5.350;2024-02-16T08:07:15;14.60;99.90
41668;DHT22;27356;50.920;5.350;2024-02-16T08:09:47;14.60;99.90
41668;DHT22;27356;50.920;5.350;2024-02-16T08:12:13;14.50;99.90
41668;DHT22;27356;50.920;5.350;2024-02-16T08:14:39;14.40;99.90
41668;DHT22;27356;50.920;5.350;2024-02-16T08:17:06;14.50;99.90
41668;DHT22;27356;50.920;5.350;2024-02-16T08:19:37;14.70;99.90
41668;DHT22;27356;50.920;5.350;2024-02-16T08:22:04;14.70;99.90
41668;DHT22;27356;50.920;5.350;2024-02-16T08:24:34;14.70;99.90
41668;DHT22;27356;50.920;5.350;2024-02-16T08:27:00;14.90;99.90
41668;DHT22;27356;50.920;5.350;2024-02-16T08:29:26;15.00;99.90
41668;DHT22;27356;50.920;5.350;2024-02-16T08:31:53;14.80;99.90
41668;DHT22;27356;50.920;5.350;2024-02-16T08:34:19;14.80;99.90
41668;DHT22;27356;50.920;5.350;2024-02-16T08:36:48;14.80;99.90
41668;DHT22;27356;50.920;5.350;2024-02-16T08:39:15;14.80;99.90
41668;DHT22;27356;50.920;5.350;2024-02-16T08:41:42;14.80;99.90
41668;DHT22;27356;50.920;5.350;2024-02-16T08:44:10;14.80;99.90
41668;DHT22;27356;50.920;5.350;2024-02-16T08:46:36;14.90;99.90
41668;DHT22;27356;50.920;5.350;2024-02-16T08:49:02;14.90;99.90
41668;DHT22;27356;50.920;5.350;2024-02-16T08:51:32;14.90;99.90
41668;DHT22;27356;50.920;5.350;2024-02-16T08:53:58;14.90;99.90
41668;DHT22;27356;50.920;5.350;2024-02-16T08:56:24;15.00;99.90
41668;DHT22;27356;50.920;5.350;2024-02-16T08:58:49;15.00;99.90
41668;DHT22;27356;50.920;5.350;2024-02-16T09:01:16;14.90;99.90
41668;DHT22;27356;50.920;5.350;2024-02-16T09:03:43;14.90;99.90
41668;DHT22;27356;50.920;5.350;2024-02-16T09:06:09;15.00;99.90
41668;DHT22;27356;50.920;5.350;2024-02-16T09:08:34;15.20;99.90
41668;DHT22;27356;50.920;5.350;2024-02-16T09:13:43;15.10;99.90
41668;DHT22;27356;50.920;5.350;2024-02-16T09:16:09;15.10;99.90
41668;DHT22;27356;50.920;5.350;2024-02-16T09:18:35;15.20;99.90
41668;DHT22;27356;50.920;5.350;2024-02-16T09:21:05;15.10;99.90
41668;DHT22;27356;50.920;5.350;2024-02-16T09:23:32;15.00;99.90
41668;DHT22;27356;50.920;5.350;2024-02-16T09:25:58;15.00;99.90
41668;DHT22;27356;50.920;5.350;2024-02-16T09:28:30;15.10;99.90
41668;DHT22;27356;50.920;5.350;2024-02-16T09:30:57;15.00;99.90
41668;DHT22;27356;50.920;5.350;2024-02-16T09:33:23;15.10;99.90
41668;DHT22;27356;50.920;5.350;2024-02-16T09:35:52;15.20;99.90
41668;DHT22;27356;50.920;5.350;2024-02-16T09:38:19;15.10;99.90
41668;DHT22;27356;50.920;5.350;2024-02-16T09:40:45;15.10;99.90
41668;DHT22;27356;50.920;5.350;2024-02-16T09:43:25;15.20;99.90
41668;DHT22;27356;50.920;5.350;2024-02-16T09:45:59;15.30;99.90
41668;DHT22;27356;50.920;5.350;2024-02-16T09:48:28;15.20;99.90
41668;DHT22;27356;50.920;5.350;2024-02-16T09:50:57;15.30;99.90
41668;DHT22;27356;50.920;5.350;2024-02-16T09:53:27;15.30;99.90
41668;DHT22;27356;50.920;5.350;2024-02-16T09:55:53;15.30;99.90
41668;DHT22;27356;50.920;5.350;2024-02-16T09:58:19;15.40;99.90
41668;DHT22;27356;50.920;5.350;2024-02-16T10:00:55;15.50;99.90
41668;DHT22;27356;50.920;5.350;2024-02-16T10:03:31;15.40;99.90
41668;DHT22;27356;50.920;5.350;2024-02-16T10:06:10;15.30;99.90
41668;DHT22;27356;50.920;5.350;2024-02-16T10:08:55;15.10;99.90
41668;DHT22;27356;50.920;5.350;2024-02-16T10:11:27;15.10;99.90
41668;DHT22;27356;50.920;5.350;2024-02-16T10:13:58;15.10;99.90
41668;DHT22;27356;50.920;5.350;2024-02-16T10:16:25;15.10;99.90
41668;DHT22;27356;50.920;5.350;2024-02-16T10:18:51;15.20;99.90
41668;DHT22;27356;50.920;5.350;2024-02-16T10:21:29;15.30;99.90
41668;DHT22;27356;50.920;5.350;2024-02-16T10:24:08;15.30;99.90
41668;DHT22;27356;50.920;5.350;2024-02-16T10:26:34;15.30;99.90
41668;DHT22;27356;50.920;5.350;2024-02-16T10:29:04;15.30;99.90
41668;DHT22;27356;50.920;5.350;2024-02-16T10:31:31;15.40;99.90
41668;DHT22;27356;50.920;5.350;2024-02-16T10:34:02;15.20;99.90
41668;DHT22;27356;50.920;5.350;2024-02-16T10:36:33;15.00;99.90
41668;DHT22;27356;50.920;5.350;2024-02-16T10:39:00;15.00;99.90
41668;DHT22;27356;50.920;5.350;2024-02-16T10:41:37;14.90;99.90
41668;DHT22;27356;50.920;5.350;2024-02-16T10:44:04;14.90;99.90
41668;DHT22;27356;50.920;5.350;2024-02-16T10:46:31;14.90;99.90
41668;DHT22;27356;50.920;5.350;2024-02-16T10:48:58;14.80;99.90
41668;DHT22;27356;50.920;5.350;2024-02-16T10:51:32;14.70;99.90
41668;DHT22;27356;50.920;5.350;2024-02-16T10:54:00;14.80;99.90
41668;DHT22;27356;50.920;5.350;2024-02-16T10:56:34;14.90;99.90
41668;DHT22;27356;50.920;5.350;2024-02-16T10:59:04;14.90;99.90
41668;DHT22;27356;50.920;5.350;2024-02-16T11:01:41;15.00;99.90
41668;DHT22;27356;50.920;5.350;2024-02-16T11:04:11;14.90;99.90
41668;DHT22;27356;50.920;5.350;2024-02-16T11:06:53;14.90;99.90
41668;DHT22;27356;50.920;5.350;2024-02-16T11:09:30;14.90;99.90
41668;DHT22;27356;50.920;5.350;2024-02-16T11:12:00;15.00;99.90
41668;DHT22;27356;50.920;5.350;2024-02-16T11:17:12;14.80;99.90
41668;DHT22;27356;50.920;5.350;2024-02-16T11:19:43;14.80;99.90
41668;DHT22;27356;50.920;5.350;2024-02-16T11:22:10;14.80;99.90
41668;DHT22;27356;50.920;5.350;2024-02-16T11:24:38;15.00;99.90
41668;DHT22;27356;50.920;5.350;2024-02-16T11:27:08;14.90;99.90
41668;DHT22;27356;50.920;5.350;2024-02-16T11:29:37;14.80;99.90
41668;DHT22;27356;50.920;5.350;2024-02-16T11:32:04;14.70;99.90
41668;DHT22;27356;50.920;5.350;2024-02-16T11:34:31;14.80;99.90
41668;DHT22;27356;50.920;5.350;2024-02-16T11:37:02;14.80;99.90
41668;DHT22;27356;50.920;5.350;2024-02-16T11:39:29;14.60;99.90
41668;DHT22;27356;50.920;5.350;2024-02-16T11:42:04;14.60;99.90
41668;DHT22;27356;50.920;5.350;2024-02-16T11:44:32;14.60;99.90
41668;DHT22;27356;50.920;5.350;2024-02-16T11:46:58;14.60;99.90
41668;DHT22;27356;50.920;5.350;2024-02-16T11:49:24;14.50;99.90
41668;DHT22;27356;50.920;5.350;2024-02-16T11:51:51;14.70;99.90
41668;DHT22;27356;50.920;5.350;2024-02-16T11:54:16;14.80;99.90
41668;DHT22;27356;50.920;5.350;2024-02-16T11:56:48;14.90;99.90
41668;DHT22;27356;50.920;5.350;2024-02-16T11:59:18;14.80;99.90
41668;DHT22;27356;50.920;5.350;2024-02-16T12:02:00;14.80;99.90
41668;DHT22;27356;50.920;5.350;2024-02-16T12:04:30;14.90;99.90
41668;DHT22;27356;50.920;5.350;2024-02-16T12:07:02;14.90;99.90
41668;DHT22;27356;50.920;5.350;2024-02-16T12:09:28;15.00;99.90
41668;DHT22;27356;50.920;5.350;2024-02-16T12:11:57;14.80;99.90
41668;DHT22;27356;50.920;5.350;2024-02-16T12:14:24;14.80;99.90
41668;DHT22;27356;50.920;5.350;2024-02-16T12:16:51;14.70;99.90
41668;DHT22;27356;50.920;5.350;2024-02-16T12:19:20;14.80;99.90
41668;DHT22;27356;50.920;5.350;2024-02-16T12:21:55;14.90;99.90
41668;DHT22;27356;50.920;5.350;2024-02-16T12:24:24;14.90;99.90
41668;DHT22;27356;50.920;5.350;2024-02-16T12:26:50;15.00;99.90
41668;DHT22;27356;50.920;5.350;2024-02-16T12:29:16;15.00;99.90
41668;DHT22;27356;50.920;5.350;2024-02-16T12:31:44;15.00;99.90
41668;DHT22;27356;50.920;5.350;2024-02-16T12:34:10;14.90;99.90
41668;DHT22;27356;50.920;5.350;2024-02-16T12:36:38;14.90;99.90
41668;DHT22;27356;50.920;5.350;2024-02-16T12:39:05;14.90;99.90
41668;DHT22;27356;50.920;5.350;2024-02-16T12:41:32;14.90;99.90
41668;DHT22;27356;50.920;5.350;2024-02-16T12:43:59;14.70;99.90
41668;DHT22;27356;50.920;5.350;2024-02-16T12:46:25;14.80;99.90
41668;DHT22;27356;50.920;5.350;2024-02-16T12:48:53;14.70;99.90
41668;DHT22;27356;50.920;5.350;2024-02-16T12:51:19;14.70;99.90
41668;DHT22;27356;50.920;5.350;2024-02-16T12:53:45;14.50;99.90
41668;DHT22;27356;50.920;5.350;2024-02-16T12:56:11;14.40;99.90
41668;DHT22;27356;50.920;5.350;2024-02-16T12:58:39;14.40;99.90
41668;DHT22;27356;50.920;5.350;2024-02-16T13:01:08;14.40;99.90
41668;DHT22;27356;50.920;5.350;2024-02-16T13:03:34;14.30;99.90
41668;DHT22;27356;50.920;5.350;2024-02-16T13:06:01;14.30;99.90
41668;DHT22;27356;50.920;5.350;2024-02-16T13:08:30;14.40;99.90
41668;DHT22;27356;50.920;5.350;2024-02-16T13:10:58;14.30;99.90
41668;DHT22;27356;50.920;5.350;2024-02-16T13:13:24;14.20;99.90
41668;DHT22;27356;50.920;5.350;2024-02-16T13:15:50;14.20;99.90
41668;DHT22;27356;50.920;5.350;2024-02-16T13:18:16;14.20;99.90
41668;DHT22;27356;50.920;5.350;2024-02-16T13:20:43;14.30;99.90
41668;DHT22;27356;50.920;5.350;2024-02-16T13:23:09;14.30;99.90
41668;DHT22;27356;50.920;5.350;2024-02-16T13:25:36;14.40;99.90
41668;DHT22;27356;50.920;5.350;2024-02-16T13:28:02;14.30;99.90
41668;DHT22;27356;50.920;5.350;2024-02-16T13:30:28;14.30;99.90
41668;DHT22;27356;50.920;5.350;2024-02-16T13:32:54;14.20;99.90
41668;DHT22;27356;50.920;5.350;2024-02-16T13:35:20;14.10;99.90
41668;DHT22;27356;50.920;5.350;2024-02-16T13:37:46;14.00;99.90
41668;DHT22;27356;50.920;5.350;2024-02-16T13:40:12;14.10;99.90
41668;DHT22;27356;50.920;5.350;2024-02-16T13:42:39;14.20;99.90
41668;DHT22;27356;50.920;5.350;2024-02-16T13:45:06;14.10;99.90
41668;DHT22;27356;50.920;5.350;2024-02-16T13:47:32;14.10;99.90
41668;DHT22;27356;50.920;5.350;2024-02-16T13:49:57;14.10;99.90
41668;DHT22;27356;50.920;5.350;2024-02-16T13:52:25;14.10;99.90
41668;DHT22;27356;50.920;5.350;2024-02-16T13:54:51;14.10;99.90
41668;DHT22;27356;50.920;5.350;2024-02-16T13:57:18;14.10;99.90
41668;DHT22;27356;50.920;5.350;2024-02-16T13:59:45;14.10;99.90
41668;DHT22;27356;50.920;5.350;2024-02-16T14:02:11;14.10;99.90
41668;DHT22;27356;50.920;5.350;2024-02-16T14:04:38;14.00;99.90
41668;DHT22;27356;50.920;5.350;2024-02-16T14:07:04;13.90;99.90
41668;DHT22;27356;50.920;5.350;2024-02-16T14:09:30;13.90;99.90
41668;DHT22;27356;50.920;5.350;2024-02-16T14:11:55;13.90;99.90
41668;DHT22;27356;50.920;5.350;2024-02-16T14:14:24;14.00;99.90
41668;DHT22;27356;50.920;5.350;2024-02-16T14:16:50;13.80;99.90
41668;DHT22;27356;50.920;5.350;2024-02-16T14:19:17;13.80;99.90
41668;DHT22;27356;50.920;5.350;2024-02-16T14:21:46;13.70;99.90
41668;DHT22;27356;50.920;5.350;2024-02-16T14:24:13;13.60;99.90
41668;DHT22;27356;50.920;5.350;2024-02-16T14:26:39;13.70;99.90
41668;DHT22;27356;50.920;5.350;2024-02-16T14:29:06;13.50;99.90
41668;DHT22;27356;50.920;5.350;2024-02-16T14:31:32;13.50;99.90
41668;DHT22;27356;50.920;5.350;2024-02-16T14:34:01;13.50;99.90
41668;DHT22;27356;50.920;5.350;2024-02-16T14:36:28;13.60;99.90
41668;DHT22;27356;50.920;5.350;2024-02-16T14:38:53;13.60;99.90
41668;DHT22;27356;50.920;5.350;2024-02-16T14:41:19;13.70;99.90
41668;DHT22;27356;50.920;5.350;2024-02-16T14:43:46;13.70;99.90
41668;DHT22;27356;50.920;5.350;2024-02-16T14:46:12;13.70;99.90
41668;DHT22;27356;50.920;5.350;2024-02-16T14:48:39;13.80;99.90
41668;DHT22;27356;50.920;5.350;2024-02-16T14:51:05;13.90;99.90
41668;DHT22;27356;50.920;5.350;2024-02-16T14:53:31;13.90;99.90
41668;DHT22;27356;50.920;5.350;2024-02-16T14:55:59;13.90;99.90
41668;DHT22;27356;50.920;5.350;2024-02-16T14:58:25;14.00;99.90
41668;DHT22;27356;50.920;5.350;2024-02-16T15:00:51;14.00;99.90
41668;DHT22;27356;50.920;5.350;2024-02-16T15:03:17;14.00;99.90
41668;DHT22;27356;50.920;5.350;2024-02-16T15:05:45;14.00;99.90
41668;DHT22;27356;50.920;5.350;2024-02-16T15:08:11;14.00;99.90
41668;DHT22;27356;50.920;5.350;2024-02-16T15:10:37;14.00;99.90
41668;DHT22;27356;50.920;5.350;2024-02-16T15:13:03;14.00;99.90
41668;DHT22;27356;50.920;5.350;2024-02-16T15:15:29;14.20;99.90
41668;DHT22;27356;50.920;5.350;2024-02-16T15:17:55;14.20;99.90
41668;DHT22;27356;50.920;5.350;2024-02-16T15:20:21;14.10;99.90
41668;DHT22;27356;50.920;5.350;2024-02-16T15:22:49;14.20;99.90
41668;DHT22;27356;50.920;5.350;2024-02-16T15:25:14;14.20;99.90
41668;DHT22;27356;50.920;5.350;2024-02-16T15:27:41;14.20;99.90
41668;DHT22;27356;50.920;5.350;2024-02-16T15:30:07;14.30;99.90
41668;DHT22;27356;50.920;5.350;2024-02-16T15:32:33;14.20;99.90
41668;DHT22;27356;50.920;5.350;2024-02-16T15:34:59;14.00;99.90